sensor_id;sensor_type;location;lat;lon;timestamp;P1;durP1;ratioP1;P2;durP2;ratioP2
82242;SDS011;71844;51.528;4.442;2023-07-30T00:01:54;2.60;;;1.20;;
82242;SDS011;71844;51.528;4.442;2023-07-30T00:04:21;4.95;;;1.50;;
82242;SDS011;71844;51.528;4.442;2023-07-30T00:06:48;3.30;;;1.00;;
82242;SDS011;71844;51.528;4.442;2023-07-30T00:09:15;3.97;;;1.10;;
82242;SDS011;71844;51.528;4.442;2023-07-30T00:11:42;6.30;;;1.55;;
82242;SDS011;71844;51.528;4.442;2023-07-30T00:14:09;3.58;;;1.00;;
82242;SDS011;71844;51.528;4.442;2023-07-30T00:16:36;3.45;;;1.15;;
82242;SDS011;71844;51.528;4.442;2023-07-30T00:19:03;3.40;;;1.35;;
82242;SDS011;71844;51.528;4.442;2023-07-30T00:21:30;4.38;;;1.60;;
82242;SDS011;71844;51.528;4.442;2023-07-30T00:23:56;3.47;;;1.13;;
82242;SDS011;71844;51.528;4.442;2023-07-30T00:26:24;8.73;;;2.20;;
82242;SDS011;71844;51.528;4.442;2023-07-30T00:28:52;6.22;;;1.45;;
82242;SDS011;71844;51.528;4.442;2023-07-30T00:31:19;3.88;;;1.30;;
82242;SDS011;71844;51.528;4.442;2023-07-30T00:33:46;4.43;;;1.40;;
82242;SDS011;71844;51.528;4.442;2023-07-30T00:36:12;4.07;;;1.40;;
82242;SDS011;71844;51.528;4.442;2023-07-30T00:38:39;3.28;;;1.20;;
82242;SDS011;71844;51.528;4.442;2023-07-30T00:41:06;5.15;;;1.10;;
82242;SDS011;71844;51.528;4.442;2023-07-30T00:43:33;4.10;;;1.48;;
82242;SDS011;71844;51.528;4.442;2023-07-30T00:45:59;8.23;;;2.65;;
82242;SDS011;71844;51.528;4.442;2023-07-30T00:48:26;5.38;;;1.60;;
82242;SDS011;71844;51.528;4.442;2023-07-30T00:50:53;4.32;;;1.65;;
82242;SDS011;71844;51.528;4.442;2023-07-30T00:53:22;6.25;;;1.40;;
82242;SDS011;71844;51.528;4.442;2023-07-30T00:55:53;6.82;;;1.73;;
82242;SDS011;71844;51.528;4.442;2023-07-30T00:58:20;6.68;;;2.92;;
82242;SDS011;71844;51.528;4.442;2023-07-30T01:03:23;4.45;;;2.10;;
82242;SDS011;71844;51.528;4.442;2023-07-30T01:05:50;5.60;;;1.70;;
82242;SDS011;71844;51.528;4.442;2023-07-30T01:08:17;5.13;;;1.15;;
82242;SDS011;71844;51.528;4.442;2023-07-30T01:10:44;4.07;;;0.80;;
82242;SDS011;71844;51.528;4.442;2023-07-30T01:13:11;5.72;;;1.20;;
82242;SDS011;71844;51.528;4.442;2023-07-30T01:15:39;6.47;;;1.40;;
82242;SDS011;71844;51.528;4.442;2023-07-30T01:18:07;4.47;;;1.50;;
82242;SDS011;71844;51.528;4.442;2023-07-30T01:20:33;4.50;;;1.13;;
82242;SDS011;71844;51.528;4.442;2023-07-30T01:23:00;4.88;;;1.60;;
82242;SDS011;71844;51.528;4.442;2023-07-30T01:25:28;3.88;;;1.20;;
82242;SDS011;71844;51.528;4.442;2023-07-30T01:28:00;4.85;;;1.20;;
82242;SDS011;71844;51.528;4.442;2023-07-30T01:30:33;6.28;;;1.48;;
82242;SDS011;71844;51.528;4.442;2023-07-30T01:33:07;5.22;;;1.30;;
82242;SDS011;71844;51.528;4.442;2023-07-30T01:35:36;8.38;;;1.48;;
82242;SDS011;71844;51.528;4.442;2023-07-30T01:38:03;6.65;;;2.88;;
82242;SDS011;71844;51.528;4.442;2023-07-30T01:40:32;7.95;;;1.70;;
82242;SDS011;71844;51.528;4.442;2023-07-30T01:42:59;4.65;;;1.58;;
82242;SDS011;71844;51.528;4.442;2023-07-30T01:45:26;4.65;;;1.13;;
82242;SDS011;71844;51.528;4.442;2023-07-30T01:47:53;4.68;;;1.40;;
82242;SDS011;71844;51.528;4.442;2023-07-30T01:50:20;5.47;;;1.30;;
82242;SDS011;71844;51.528;4.442;2023-07-30T01:52:47;5.60;;;1.50;;
82242;SDS011;71844;51.528;4.442;2023-07-30T01:55:13;3.38;;;1.50;;
82242;SDS011;71844;51.528;4.442;2023-07-30T01:57:40;5.45;;;1.58;;
82242;SDS011;71844;51.528;4.442;2023-07-30T02:00:07;7.10;;;1.27;;
82242;SDS011;71844;51.528;4.442;2023-07-30T02:02:34;4.93;;;1.48;;
82242;SDS011;71844;51.528;4.442;2023-07-30T02:05:02;5.80;;;1.23;;
82242;SDS011;71844;51.528;4.442;2023-07-30T02:07:29;5.53;;;1.30;;
82242;SDS011;71844;51.528;4.442;2023-07-30T02:09:56;4.35;;;1.33;;
82242;SDS011;71844;51.528;4.442;2023-07-30T02:12:22;4.07;;;0.95;;
82242;SDS011;71844;51.528;4.442;2023-07-30T02:14:49;5.40;;;1.88;;
82242;SDS011;71844;51.528;4.442;2023-07-30T02:17:16;8.55;;;1.50;;
82242;SDS011;71844;51.528;4.442;2023-07-30T02:19:43;5.57;;;1.40;;
82242;SDS011;71844;51.528;4.442;2023-07-30T02:22:10;8.25;;;1.83;;
82242;SDS011;71844;51.528;4.442;2023-07-30T02:24:36;6.22;;;1.58;;
82242;SDS011;71844;51.528;4.442;2023-07-30T02:27:03;5.13;;;1.48;;
82242;SDS011;71844;51.528;4.442;2023-07-30T02:29:30;5.30;;;1.63;;
82242;SDS011;71844;51.528;4.442;2023-07-30T02:31:57;4.50;;;1.65;;
82242;SDS011;71844;51.528;4.442;2023-07-30T02:34:26;8.60;;;1.90;;
82242;SDS011;71844;51.528;4.442;2023-07-30T02:36:53;7.03;;;1.75;;
82242;SDS011;71844;51.528;4.442;2023-07-30T02:39:19;7.75;;;1.98;;
82242;SDS011;71844;51.528;4.442;2023-07-30T02:41:46;7.70;;;1.67;;
82242;SDS011;71844;51.528;4.442;2023-07-30T02:44:13;6.93;;;1.73;;
82242;SDS011;71844;51.528;4.442;2023-07-30T02:46:40;11.38;;;2.20;;
82242;SDS011;71844;51.528;4.442;2023-07-30T02:49:07;8.63;;;1.98;;
82242;SDS011;71844;51.528;4.442;2023-07-30T02:51:34;9.55;;;1.85;;
82242;SDS011;71844;51.528;4.442;2023-07-30T02:54:05;5.30;;;1.88;;
82242;SDS011;71844;51.528;4.442;2023-07-30T02:56:33;8.30;;;2.30;;
82242;SDS011;71844;51.528;4.442;2023-07-30T02:59:00;5.38;;;1.50;;
82242;SDS011;71844;51.528;4.442;2023-07-30T03:01:28;9.77;;;2.42;;
82242;SDS011;71844;51.528;4.442;2023-07-30T03:03:54;4.32;;;1.70;;
82242;SDS011;71844;51.528;4.442;2023-07-30T03:06:21;5.18;;;1.73;;
82242;SDS011;71844;51.528;4.442;2023-07-30T03:08:48;6.68;;;1.90;;
82242;SDS011;71844;51.528;4.442;2023-07-30T03:11:15;8.60;;;1.83;;
82242;SDS011;71844;51.528;4.442;2023-07-30T03:13:41;5.32;;;1.70;;
82242;SDS011;71844;51.528;4.442;2023-07-30T03:16:08;7.22;;;1.73;;
82242;SDS011;71844;51.528;4.442;2023-07-30T03:18:35;7.95;;;2.30;;
82242;SDS011;71844;51.528;4.442;2023-07-30T03:21:02;6.18;;;1.83;;
82242;SDS011;71844;51.528;4.442;2023-07-30T03:23:29;6.43;;;1.88;;
82242;SDS011;71844;51.528;4.442;2023-07-30T03:25:56;5.80;;;1.83;;
82242;SDS011;71844;51.528;4.442;2023-07-30T03:28:24;5.53;;;1.65;;
82242;SDS011;71844;51.528;4.442;2023-07-30T03:30:50;8.70;;;1.40;;
82242;SDS011;71844;51.528;4.442;2023-07-30T03:33:17;6.60;;;2.03;;
82242;SDS011;71844;51.528;4.442;2023-07-30T03:35:44;6.50;;;2.35;;
82242;SDS011;71844;51.528;4.442;2023-07-30T03:38:11;8.50;;;1.80;;
82242;SDS011;71844;51.528;4.442;2023-07-30T03:40:38;7.07;;;1.98;;
82242;SDS011;71844;51.528;4.442;2023-07-30T03:43:04;8.45;;;2.13;;
82242;SDS011;71844;51.528;4.442;2023-07-30T03:45:31;7.88;;;2.00;;
82242;SDS011;71844;51.528;4.442;2023-07-30T03:47:59;4.45;;;1.50;;
82242;SDS011;71844;51.528;4.442;2023-07-30T03:50:26;6.85;;;1.77;;
82242;SDS011;71844;51.528;4.442;2023-07-30T03:52:52;8.05;;;2.05;;
82242;SDS011;71844;51.528;4.442;2023-07-30T03:55:19;9.45;;;1.70;;
82242;SDS011;71844;51.528;4.442;2023-07-30T03:57:46;5.50;;;1.90;;
82242;SDS011;71844;51.528;4.442;2023-07-30T04:00:21;6.93;;;2.25;;
82242;SDS011;71844;51.528;4.442;2023-07-30T04:02:47;8.88;;;2.20;;
82242;SDS011;71844;51.528;4.442;2023-07-30T04:05:14;6.78;;;2.72;;
82242;SDS011;71844;51.528;4.442;2023-07-30T04:07:41;5.18;;;1.83;;
82242;SDS011;71844;51.528;4.442;2023-07-30T04:10:08;4.25;;;1.80;;
82242;SDS011;71844;51.528;4.442;2023-07-30T04:12:35;7.10;;;2.10;;
82242;SDS011;71844;51.528;4.442;2023-07-30T04:15:02;8.70;;;2.63;;
82242;SDS011;71844;51.528;4.442;2023-07-30T04:17:29;6.43;;;2.13;;
82242;SDS011;71844;51.528;4.442;2023-07-30T04:19:55;6.28;;;2.50;;
82242;SDS011;71844;51.528;4.442;2023-07-30T04:22:22;6.28;;;2.40;;
82242;SDS011;71844;51.528;4.442;2023-07-30T04:24:49;7.97;;;2.88;;
82242;SDS011;71844;51.528;4.442;2023-07-30T04:27:16;8.07;;;2.33;;
82242;SDS011;71844;51.528;4.442;2023-07-30T04:29:42;9.77;;;2.35;;
82242;SDS011;71844;51.528;4.442;2023-07-30T04:32:09;7.07;;;2.30;;
82242;SDS011;71844;51.528;4.442;2023-07-30T04:34:39;8.02;;;3.17;;
82242;SDS011;71844;51.528;4.442;2023-07-30T04:37:06;7.85;;;2.35;;
82242;SDS011;71844;51.528;4.442;2023-07-30T04:39:33;8.73;;;2.65;;
82242;SDS011;71844;51.528;4.442;2023-07-30T04:42:01;7.00;;;2.35;;
82242;SDS011;71844;51.528;4.442;2023-07-30T04:44:28;7.43;;;1.85;;
82242;SDS011;71844;51.528;4.442;2023-07-30T04:46:55;6.85;;;1.88;;
82242;SDS011;71844;51.528;4.442;2023-07-30T04:49:22;5.75;;;1.60;;
82242;SDS011;71844;51.528;4.442;2023-07-30T04:51:49;11.90;;;2.40;;
82242;SDS011;71844;51.528;4.442;2023-07-30T04:54:16;10.60;;;1.30;;
82242;SDS011;71844;51.528;4.442;2023-07-30T04:56:42;6.28;;;1.52;;
82242;SDS011;71844;51.528;4.442;2023-07-30T04:59:09;6.82;;;1.48;;
82242;SDS011;71844;51.528;4.442;2023-07-30T05:01:36;6.30;;;1.75;;
82242;SDS011;71844;51.528;4.442;2023-07-30T05:04:03;8.90;;;1.77;;
82242;SDS011;71844;51.528;4.442;2023-07-30T05:06:30;6.90;;;1.77;;
82242;SDS011;71844;51.528;4.442;2023-07-30T05:08:57;6.18;;;1.67;;
82242;SDS011;71844;51.528;4.442;2023-07-30T05:11:24;7.20;;;1.60;;
82242;SDS011;71844;51.528;4.442;2023-07-30T05:13:50;9.73;;;1.67;;
82242;SDS011;71844;51.528;4.442;2023-07-30T05:16:17;12.10;;;2.10;;
82242;SDS011;71844;51.528;4.442;2023-07-30T05:18:44;9.65;;;2.13;;
82242;SDS011;71844;51.528;4.442;2023-07-30T05:21:11;7.38;;;1.85;;
82242;SDS011;71844;51.528;4.442;2023-07-30T05:23:38;8.73;;;1.60;;
82242;SDS011;71844;51.528;4.442;2023-07-30T05:26:04;8.18;;;1.85;;
82242;SDS011;71844;51.528;4.442;2023-07-30T05:28:31;8.45;;;1.80;;
82242;SDS011;71844;51.528;4.442;2023-07-30T05:30:59;6.18;;;1.65;;
82242;SDS011;71844;51.528;4.442;2023-07-30T05:33:26;11.00;;;1.83;;
82242;SDS011;71844;51.528;4.442;2023-07-30T05:35:52;7.53;;;2.13;;
82242;SDS011;71844;51.528;4.442;2023-07-30T05:38:19;4.72;;;1.50;;
82242;SDS011;71844;51.528;4.442;2023-07-30T05:40:46;7.40;;;2.42;;
82242;SDS011;71844;51.528;4.442;2023-07-30T05:43:13;7.00;;;1.38;;
82242;SDS011;71844;51.528;4.442;2023-07-30T05:45:40;5.35;;;1.05;;
82242;SDS011;71844;51.528;4.442;2023-07-30T05:48:07;6.50;;;1.48;;
82242;SDS011;71844;51.528;4.442;2023-07-30T05:50:35;9.65;;;1.75;;
82242;SDS011;71844;51.528;4.442;2023-07-30T05:53:02;5.70;;;1.40;;
82242;SDS011;71844;51.528;4.442;2023-07-30T05:55:28;9.30;;;1.88;;
82242;SDS011;71844;51.528;4.442;2023-07-30T05:57:55;6.65;;;1.33;;
82242;SDS011;71844;51.528;4.442;2023-07-30T06:00:22;7.78;;;1.50;;
82242;SDS011;71844;51.528;4.442;2023-07-30T06:02:50;4.18;;;1.23;;
82242;SDS011;71844;51.528;4.442;2023-07-30T06:05:17;7.28;;;1.83;;
82242;SDS011;71844;51.528;4.442;2023-07-30T06:07:44;6.22;;;1.60;;
82242;SDS011;71844;51.528;4.442;2023-07-30T06:10:11;5.10;;;1.65;;
82242;SDS011;71844;51.528;4.442;2023-07-30T06:12:38;6.97;;;1.58;;
82242;SDS011;71844;51.528;4.442;2023-07-30T06:15:05;6.32;;;1.58;;
82242;SDS011;71844;51.528;4.442;2023-07-30T06:17:33;9.45;;;1.83;;
82242;SDS011;71844;51.528;4.442;2023-07-30T06:19:59;8.52;;;1.38;;
82242;SDS011;71844;51.528;4.442;2023-07-30T06:22:27;6.80;;;1.48;;
82242;SDS011;71844;51.528;4.442;2023-07-30T06:24:53;8.05;;;2.20;;
82242;SDS011;71844;51.528;4.442;2023-07-30T06:27:20;5.32;;;1.70;;
82242;SDS011;71844;51.528;4.442;2023-07-30T06:29:47;6.93;;;1.63;;
82242;SDS011;71844;51.528;4.442;2023-07-30T06:32:13;7.68;;;1.52;;
82242;SDS011;71844;51.528;4.442;2023-07-30T06:34:40;9.27;;;1.92;;
82242;SDS011;71844;51.528;4.442;2023-07-30T06:37:07;6.68;;;1.83;;
82242;SDS011;71844;51.528;4.442;2023-07-30T06:39:34;8.15;;;1.40;;
82242;SDS011;71844;51.528;4.442;2023-07-30T06:42:01;9.77;;;1.73;;
82242;SDS011;71844;51.528;4.442;2023-07-30T06:44:27;9.20;;;1.77;;
82242;SDS011;71844;51.528;4.442;2023-07-30T06:46:54;7.32;;;1.40;;
82242;SDS011;71844;51.528;4.442;2023-07-30T06:49:21;7.85;;;0.95;;
82242;SDS011;71844;51.528;4.442;2023-07-30T06:51:49;7.43;;;2.22;;
82242;SDS011;71844;51.528;4.442;2023-07-30T06:54:16;8.70;;;1.40;;
82242;SDS011;71844;51.528;4.442;2023-07-30T06:56:42;9.23;;;1.50;;
82242;SDS011;71844;51.528;4.442;2023-07-30T06:59:09;9.88;;;1.75;;
82242;SDS011;71844;51.528;4.442;2023-07-30T07:01:36;4.95;;;1.52;;
82242;SDS011;71844;51.528;4.442;2023-07-30T07:04:03;6.78;;;1.52;;
82242;SDS011;71844;51.528;4.442;2023-07-30T07:06:30;5.25;;;1.40;;
82242;SDS011;71844;51.528;4.442;2023-07-30T07:08:57;8.68;;;1.92;;
82242;SDS011;71844;51.528;4.442;2023-07-30T07:11:24;9.43;;;1.88;;
82242;SDS011;71844;51.528;4.442;2023-07-30T07:13:51;8.50;;;1.40;;
82242;SDS011;71844;51.528;4.442;2023-07-30T07:16:17;9.88;;;1.92;;
82242;SDS011;71844;51.528;4.442;2023-07-30T07:18:45;3.60;;;1.63;;
82242;SDS011;71844;51.528;4.442;2023-07-30T07:21:12;7.53;;;1.17;;
82242;SDS011;71844;51.528;4.442;2023-07-30T07:23:40;8.20;;;1.67;;
82242;SDS011;71844;51.528;4.442;2023-07-30T07:26:07;6.38;;;1.77;;
82242;SDS011;71844;51.528;4.442;2023-07-30T07:28:34;12.13;;;2.58;;
82242;SDS011;71844;51.528;4.442;2023-07-30T07:31:04;10.25;;;2.65;;
82242;SDS011;71844;51.528;4.442;2023-07-30T07:33:31;10.43;;;2.55;;
82242;SDS011;71844;51.528;4.442;2023-07-30T07:36:07;8.93;;;1.52;;
82242;SDS011;71844;51.528;4.442;2023-07-30T07:38:34;8.43;;;1.80;;
82242;SDS011;71844;51.528;4.442;2023-07-30T07:41:01;7.90;;;1.77;;
82242;SDS011;71844;51.528;4.442;2023-07-30T07:43:29;6.93;;;1.75;;
82242;SDS011;71844;51.528;4.442;2023-07-30T07:45:57;6.95;;;1.65;;
82242;SDS011;71844;51.528;4.442;2023-07-30T07:48:24;7.68;;;1.85;;
82242;SDS011;71844;51.528;4.442;2023-07-30T07:50:51;10.55;;;2.55;;
82242;SDS011;71844;51.528;4.442;2023-07-30T07:53:18;8.75;;;1.80;;
82242;SDS011;71844;51.528;4.442;2023-07-30T07:55:44;7.97;;;1.63;;
82242;SDS011;71844;51.528;4.442;2023-07-30T07:58:11;9.02;;;2.33;;
82242;SDS011;71844;51.528;4.442;2023-07-30T08:00:38;8.35;;;1.90;;
82242;SDS011;71844;51.528;4.442;2023-07-30T08:03:05;7.68;;;2.10;;
82242;SDS011;71844;51.528;4.442;2023-07-30T08:05:32;8.38;;;2.58;;
82242;SDS011;71844;51.528;4.442;2023-07-30T08:07:58;5.47;;;1.77;;
82242;SDS011;71844;51.528;4.442;2023-07-30T08:10:25;8.55;;;1.83;;
82242;SDS011;71844;51.528;4.442;2023-07-30T08:12:52;8.00;;;2.08;;
82242;SDS011;71844;51.528;4.442;2023-07-30T08:15:18;6.50;;;1.70;;
82242;SDS011;71844;51.528;4.442;2023-07-30T08:17:46;12.80;;;2.20;;
82242;SDS011;71844;51.528;4.442;2023-07-30T08:20:13;6.90;;;2.20;;
82242;SDS011;71844;51.528;4.442;2023-07-30T08:22:40;7.22;;;1.83;;
82242;SDS011;71844;51.528;4.442;2023-07-30T08:25:07;9.32;;;2.38;;
82242;SDS011;71844;51.528;4.442;2023-07-30T08:27:33;9.48;;;1.77;;
82242;SDS011;71844;51.528;4.442;2023-07-30T08:30:00;7.35;;;1.77;;
82242;SDS011;71844;51.528;4.442;2023-07-30T08:32:27;4.68;;;1.17;;
82242;SDS011;71844;51.528;4.442;2023-07-30T08:34:54;10.35;;;1.48;;
82242;SDS011;71844;51.528;4.442;2023-07-30T08:37:21;4.90;;;1.42;;
82242;SDS011;71844;51.528;4.442;2023-07-30T08:39:47;5.82;;;1.35;;
82242;SDS011;71844;51.528;4.442;2023-07-30T08:42:15;6.75;;;1.15;;
82242;SDS011;71844;51.528;4.442;2023-07-30T08:44:42;4.70;;;1.35;;
82242;SDS011;71844;51.528;4.442;2023-07-30T08:47:12;5.63;;;1.75;;
82242;SDS011;71844;51.528;4.442;2023-07-30T08:49:39;7.35;;;1.25;;
82242;SDS011;71844;51.528;4.442;2023-07-30T08:52:08;5.80;;;1.15;;
82242;SDS011;71844;51.528;4.442;2023-07-30T08:54:36;6.10;;;1.50;;
82242;SDS011;71844;51.528;4.442;2023-07-30T08:57:04;5.53;;;1.40;;
82242;SDS011;71844;51.528;4.442;2023-07-30T08:59:39;5.97;;;1.50;;
82242;SDS011;71844;51.528;4.442;2023-07-30T09:02:26;3.50;;;0.90;;
82242;SDS011;71844;51.528;4.442;2023-07-30T09:05:00;4.68;;;0.88;;
82242;SDS011;71844;51.528;4.442;2023-07-30T09:07:28;2.65;;;0.70;;
82242;SDS011;71844;51.528;4.442;2023-07-30T09:09:55;2.03;;;0.80;;
82242;SDS011;71844;51.528;4.442;2023-07-30T09:12:26;2.42;;;0.88;;
82242;SDS011;71844;51.528;4.442;2023-07-30T09:14:57;3.75;;;0.98;;
82242;SDS011;71844;51.528;4.442;2023-07-30T09:17:23;3.63;;;0.95;;
82242;SDS011;71844;51.528;4.442;2023-07-30T09:19:52;2.08;;;0.88;;
82242;SDS011;71844;51.528;4.442;2023-07-30T09:22:20;3.75;;;1.00;;
82242;SDS011;71844;51.528;4.442;2023-07-30T09:24:53;3.00;;;0.80;;
82242;SDS011;71844;51.528;4.442;2023-07-30T09:27:21;2.97;;;1.15;;
82242;SDS011;71844;51.528;4.442;2023-07-30T09:29:53;3.00;;;1.00;;
82242;SDS011;71844;51.528;4.442;2023-07-30T09:32:24;3.35;;;1.15;;
82242;SDS011;71844;51.528;4.442;2023-07-30T09:34:52;3.63;;;1.10;;
82242;SDS011;71844;51.528;4.442;2023-07-30T09:37:19;4.93;;;1.10;;
82242;SDS011;71844;51.528;4.442;2023-07-30T09:39:49;4.03;;;1.27;;
82242;SDS011;71844;51.528;4.442;2023-07-30T09:42:16;3.17;;;0.90;;
82242;SDS011;71844;51.528;4.442;2023-07-30T09:44:43;3.60;;;0.90;;
82242;SDS011;71844;51.528;4.442;2023-07-30T09:47:13;3.85;;;0.88;;
82242;SDS011;71844;51.528;4.442;2023-07-30T09:49:40;2.55;;;0.82;;
82242;SDS011;71844;51.528;4.442;2023-07-30T09:52:07;3.53;;;1.30;;
82242;SDS011;71844;51.528;4.442;2023-07-30T09:54:34;4.65;;;0.90;;
82242;SDS011;71844;51.528;4.442;2023-07-30T09:57:02;2.17;;;0.63;;
82242;SDS011;71844;51.528;4.442;2023-07-30T09:59:30;2.63;;;0.50;;
82242;SDS011;71844;51.528;4.442;2023-07-30T10:02:06;3.70;;;0.75;;
82242;SDS011;71844;51.528;4.442;2023-07-30T10:05:05;4.53;;;0.80;;
82242;SDS011;71844;51.528;4.442;2023-07-30T10:07:38;4.55;;;0.70;;
82242;SDS011;71844;51.528;4.442;2023-07-30T10:10:10;2.92;;;0.77;;
82242;SDS011;71844;51.528;4.442;2023-07-30T10:12:38;4.97;;;0.80;;
82242;SDS011;71844;51.528;4.442;2023-07-30T10:15:07;2.35;;;0.50;;
82242;SDS011;71844;51.528;4.442;2023-07-30T10:17:34;3.95;;;0.68;;
82242;SDS011;71844;51.528;4.442;2023-07-30T10:23:07;2.67;;;0.82;;
82242;SDS011;71844;51.528;4.442;2023-07-30T10:28:25;3.85;;;0.52;;
82242;SDS011;71844;51.528;4.442;2023-07-30T10:30:58;4.03;;;0.88;;
82242;SDS011;71844;51.528;4.442;2023-07-30T10:33:43;4.38;;;1.00;;
82242;SDS011;71844;51.528;4.442;2023-07-30T10:36:18;5.50;;;0.70;;
82242;SDS011;71844;51.528;4.442;2023-07-30T10:38:57;3.40;;;0.50;;
82242;SDS011;71844;51.528;4.442;2023-07-30T10:41:27;2.75;;;0.60;;
82242;SDS011;71844;51.528;4.442;2023-07-30T10:43:54;3.25;;;0.40;;
82242;SDS011;71844;51.528;4.442;2023-07-30T10:46:21;3.50;;;0.60;;
82242;SDS011;71844;51.528;4.442;2023-07-30T10:48:48;1.58;;;0.50;;
82242;SDS011;71844;51.528;4.442;2023-07-30T10:53:50;2.72;;;0.60;;
82242;SDS011;71844;51.528;4.442;2023-07-30T10:56:22;2.00;;;0.60;;
82242;SDS011;71844;51.528;4.442;2023-07-30T10:58:51;2.53;;;0.50;;
82242;SDS011;71844;51.528;4.442;2023-07-30T11:01:19;3.38;;;0.50;;
82242;SDS011;71844;51.528;4.442;2023-07-30T11:03:49;1.88;;;0.30;;
82242;SDS011;71844;51.528;4.442;2023-07-30T11:06:26;3.05;;;0.50;;
82242;SDS011;71844;51.528;4.442;2023-07-30T11:08:53;2.08;;;0.40;;
82242;SDS011;71844;51.528;4.442;2023-07-30T11:11:19;4.07;;;0.50;;
82242;SDS011;71844;51.528;4.442;2023-07-30T11:13:47;2.33;;;0.30;;
82242;SDS011;71844;51.528;4.442;2023-07-30T11:16:14;2.53;;;0.50;;
82242;SDS011;71844;51.528;4.442;2023-07-30T11:18:42;3.00;;;0.70;;
82242;SDS011;71844;51.528;4.442;2023-07-30T11:21:14;2.53;;;0.50;;
82242;SDS011;71844;51.528;4.442;2023-07-30T11:23:43;2.30;;;0.40;;
82242;SDS011;71844;51.528;4.442;2023-07-30T11:26:13;3.65;;;0.77;;
82242;SDS011;71844;51.528;4.442;2023-07-30T11:28:44;4.45;;;0.60;;
82242;SDS011;71844;51.528;4.442;2023-07-30T11:31:16;3.08;;;0.68;;
82242;SDS011;71844;51.528;4.442;2023-07-30T11:33:59;2.67;;;0.60;;
82242;SDS011;71844;51.528;4.442;2023-07-30T11:36:25;4.07;;;1.20;;
82242;SDS011;71844;51.528;4.442;2023-07-30T11:38:54;4.07;;;0.80;;
82242;SDS011;71844;51.528;4.442;2023-07-30T11:41:21;2.55;;;0.57;;
82242;SDS011;71844;51.528;4.442;2023-07-30T11:43:50;3.38;;;0.47;;
82242;SDS011;71844;51.528;4.442;2023-07-30T11:46:18;2.72;;;0.40;;
82242;SDS011;71844;51.528;4.442;2023-07-30T11:48:49;1.98;;;0.43;;
82242;SDS011;71844;51.528;4.442;2023-07-30T11:51:27;2.67;;;0.50;;
82242;SDS011;71844;51.528;4.442;2023-07-30T11:53:55;4.05;;;0.90;;
82242;SDS011;71844;51.528;4.442;2023-07-30T11:56:27;1.33;;;0.30;;
82242;SDS011;71844;51.528;4.442;2023-07-30T12:01:27;2.08;;;0.40;;
82242;SDS011;71844;51.528;4.442;2023-07-30T12:03:58;2.70;;;0.45;;
82242;SDS011;71844;51.528;4.442;2023-07-30T12:06:38;2.58;;;0.50;;
82242;SDS011;71844;51.528;4.442;2023-07-30T12:09:13;1.98;;;0.30;;
82242;SDS011;71844;51.528;4.442;2023-07-30T12:11:59;2.08;;;0.40;;
82242;SDS011;71844;51.528;4.442;2023-07-30T12:14:43;2.63;;;0.40;;
82242;SDS011;71844;51.528;4.442;2023-07-30T12:17:13;3.17;;;0.60;;
82242;SDS011;71844;51.528;4.442;2023-07-30T12:19:40;1.05;;;0.15;;
82242;SDS011;71844;51.528;4.442;2023-07-30T12:22:07;3.08;;;0.50;;
82242;SDS011;71844;51.528;4.442;2023-07-30T12:24:34;0.88;;;0.30;;
82242;SDS011;71844;51.528;4.442;2023-07-30T12:27:01;2.03;;;0.30;;
82242;SDS011;71844;51.528;4.442;2023-07-30T12:29:28;1.80;;;0.40;;
82242;SDS011;71844;51.528;4.442;2023-07-30T12:31:55;1.63;;;0.32;;
82242;SDS011;71844;51.528;4.442;2023-07-30T12:34:23;1.58;;;0.40;;
82242;SDS011;71844;51.528;4.442;2023-07-30T12:36:50;1.88;;;0.32;;
82242;SDS011;71844;51.528;4.442;2023-07-30T12:39:17;1.77;;;0.35;;
82242;SDS011;71844;51.528;4.442;2023-07-30T12:41:44;3.55;;;0.50;;
82242;SDS011;71844;51.528;4.442;2023-07-30T12:44:10;2.55;;;0.40;;
82242;SDS011;71844;51.528;4.442;2023-07-30T12:46:37;2.25;;;0.52;;
82242;SDS011;71844;51.528;4.442;2023-07-30T12:49:04;2.47;;;0.52;;
82242;SDS011;71844;51.528;4.442;2023-07-30T12:51:31;2.55;;;0.65;;
82242;SDS011;71844;51.528;4.442;2023-07-30T12:53:58;1.88;;;0.60;;
82242;SDS011;71844;51.528;4.442;2023-07-30T12:56:26;2.47;;;0.75;;
82242;SDS011;71844;51.528;4.442;2023-07-30T12:58:53;2.40;;;0.43;;
82242;SDS011;71844;51.528;4.442;2023-07-30T13:01:19;2.30;;;0.65;;
82242;SDS011;71844;51.528;4.442;2023-07-30T13:03:47;3.03;;;0.40;;
82242;SDS011;71844;51.528;4.442;2023-07-30T13:06:15;3.97;;;0.75;;
82242;SDS011;71844;51.528;4.442;2023-07-30T13:08:42;4.82;;;0.80;;
82242;SDS011;71844;51.528;4.442;2023-07-30T13:11:09;2.60;;;0.60;;
82242;SDS011;71844;51.528;4.442;2023-07-30T13:13:36;2.15;;;0.60;;
82242;SDS011;71844;51.528;4.442;2023-07-30T13:16:03;3.30;;;0.80;;
82242;SDS011;71844;51.528;4.442;2023-07-30T13:18:30;3.65;;;0.90;;
82242;SDS011;71844;51.528;4.442;2023-07-30T13:20:56;4.30;;;0.85;;
82242;SDS011;71844;51.528;4.442;2023-07-30T13:23:23;3.45;;;0.90;;
82242;SDS011;71844;51.528;4.442;2023-07-30T13:25:55;3.90;;;0.63;;
82242;SDS011;71844;51.528;4.442;2023-07-30T13:28:22;4.75;;;0.57;;
82242;SDS011;71844;51.528;4.442;2023-07-30T13:30:49;4.55;;;0.70;;
82242;SDS011;71844;51.528;4.442;2023-07-30T13:33:17;2.80;;;0.70;;
82242;SDS011;71844;51.528;4.442;2023-07-30T13:35:44;3.25;;;0.57;;
82242;SDS011;71844;51.528;4.442;2023-07-30T13:45:53;2.50;;;0.60;;
82242;SDS011;71844;51.528;4.442;2023-07-30T16:25:24;2.58;;;0.77;;
82242;SDS011;71844;51.528;4.442;2023-07-30T18:10:48;1.23;;;0.40;;
82242;SDS011;71844;51.528;4.442;2023-07-30T18:13:15;1.42;;;0.60;;
82242;SDS011;71844;51.528;4.442;2023-07-30T18:15:42;1.73;;;0.50;;
82242;SDS011;71844;51.528;4.442;2023-07-30T18:18:12;1.17;;;0.50;;
82242;SDS011;71844;51.528;4.442;2023-07-30T18:20:40;1.17;;;0.50;;
82242;SDS011;71844;51.528;4.442;2023-07-30T18:23:07;1.50;;;0.52;;
82242;SDS011;71844;51.528;4.442;2023-07-30T18:25:34;1.20;;;0.70;;
82242;SDS011;71844;51.528;4.442;2023-07-30T18:28:01;1.27;;;0.45;;
82242;SDS011;71844;51.528;4.442;2023-07-30T18:30:28;1.15;;;0.50;;
82242;SDS011;71844;51.528;4.442;2023-07-30T18:32:54;0.70;;;0.45;;
82242;SDS011;71844;51.528;4.442;2023-07-30T18:35:21;1.17;;;0.60;;
82242;SDS011;71844;51.528;4.442;2023-07-30T18:37:48;0.75;;;0.40;;
82242;SDS011;71844;51.528;4.442;2023-07-30T18:40:15;0.63;;;0.32;;
82242;SDS011;71844;51.528;4.442;2023-07-30T18:42:44;1.15;;;0.50;;
82242;SDS011;71844;51.528;4.442;2023-07-30T18:45:14;2.33;;;0.30;;
82242;SDS011;71844;51.528;4.442;2023-07-30T18:47:41;0.98;;;0.68;;
82242;SDS011;71844;51.528;4.442;2023-07-30T18:50:08;1.33;;;0.45;;
82242;SDS011;71844;51.528;4.442;2023-07-30T18:52:35;0.63;;;0.10;;
82242;SDS011;71844;51.528;4.442;2023-07-30T18:55:02;0.70;;;0.40;;
82242;SDS011;71844;51.528;4.442;2023-07-30T18:57:29;1.65;;;0.32;;
82242;SDS011;71844;51.528;4.442;2023-07-30T18:59:56;1.05;;;0.30;;
82242;SDS011;71844;51.528;4.442;2023-07-30T19:02:23;1.20;;;0.60;;
82242;SDS011;71844;51.528;4.442;2023-07-30T19:04:50;1.30;;;0.55;;
82242;SDS011;71844;51.528;4.442;2023-07-30T19:07:17;0.85;;;0.45;;
82242;SDS011;71844;51.528;4.442;2023-07-30T19:09:44;0.98;;;0.57;;
82242;SDS011;71844;51.528;4.442;2023-07-30T19:12:11;0.70;;;0.30;;
82242;SDS011;71844;51.528;4.442;2023-07-30T19:14:38;0.65;;;0.35;;
82242;SDS011;71844;51.528;4.442;2023-07-30T19:17:05;5.07;;;0.50;;
82242;SDS011;71844;51.528;4.442;2023-07-30T19:19:32;0.93;;;0.40;;
82242;SDS011;71844;51.528;4.442;2023-07-30T19:21:59;1.15;;;0.57;;
82242;SDS011;71844;51.528;4.442;2023-07-30T19:24:25;3.97;;;0.45;;
82242;SDS011;71844;51.528;4.442;2023-07-30T19:26:54;1.67;;;0.55;;
82242;SDS011;71844;51.528;4.442;2023-07-30T19:29:21;2.67;;;0.60;;
82242;SDS011;71844;51.528;4.442;2023-07-30T19:31:48;1.35;;;0.57;;
82242;SDS011;71844;51.528;4.442;2023-07-30T19:34:14;1.90;;;0.68;;